createdAt,value
2019-05-06T00:01:26.416Z,62.96
2019-05-06T00:05:47.229Z,62.85
2019-05-06T00:10:21.684Z,61.99
2019-05-06T00:14:43.666Z,63.27
2019-05-06T00:19:04.812Z,63.90
2019-05-06T00:23:26.096Z,63.73
2019-05-06T00:27:46.829Z,64.20
2019-05-06T00:32:07.398Z,63.98
2019-05-06T00:36:28.461Z,63.71
2019-05-06T00:40:48.796Z,63.28
2019-05-06T00:45:09.086Z,63.92
2019-05-06T00:49:29.765Z,64.31
2019-05-06T00:53:50.681Z,63.97
2019-05-06T00:58:10.844Z,64.38
2019-05-06T01:02:31.416Z,64.62
2019-05-06T01:06:51.793Z,64.42
2019-05-06T01:11:14.277Z,64.31
2019-05-06T01:15:34.587Z,64.50
2019-05-06T01:19:54.683Z,64.75
2019-05-06T01:24:15.407Z,65.15
2019-05-06T01:28:35.880Z,64.91
2019-05-06T01:32:56.145Z,65.36
2019-05-06T01:37:16.523Z,65.35
2019-05-06T01:41:37.384Z,65.63
2019-05-06T01:45:57.944Z,65.97
2019-05-06T01:50:18.721Z,66.05
2019-05-06T01:54:38.999Z,66.91
2019-05-06T01:58:59.577Z,66.66
2019-05-06T02:03:20.308Z,66.95
2019-05-06T02:07:40.451Z,67.52
2019-05-06T02:12:00.751Z,67.71
2019-05-06T02:16:21.311Z,68.06
2019-05-06T02:20:41.740Z,68.32
2019-05-06T02:25:04.301Z,68.20
2019-05-06T02:29:24.780Z,68.18
2019-05-06T02:33:45.051Z,68.36
2019-05-06T02:38:05.504Z,68.60
2019-05-06T02:42:25.963Z,69.21
2019-05-06T02:46:46.519Z,68.89
2019-05-06T02:51:06.929Z,68.46
2019-05-06T02:55:27.774Z,68.63
2019-05-06T02:59:47.979Z,68.75
2019-05-06T03:04:08.321Z,69.04
2019-05-06T03:08:28.986Z,69.30
2019-05-06T03:12:50.042Z,69.58
2019-05-06T03:17:10.303Z,69.63
2019-05-06T03:21:36.670Z,70.15
2019-05-06T03:25:53.573Z,69.74
2019-05-06T03:30:16.662Z,69.61
2019-05-06T03:34:57.975Z,69.48
2019-05-06T03:38:59.578Z,69.98
2019-05-06T03:43:23.107Z,69.78
2019-05-06T03:47:43.616Z,70.07
2019-05-06T03:52:04.082Z,69.99
2019-05-06T03:56:25.361Z,70.34
2019-05-06T04:00:46.474Z,70.38
2019-05-06T04:05:07.362Z,70.75
2019-05-06T04:09:27.633Z,70.76
2019-05-06T04:13:47.956Z,70.87
2019-05-06T04:18:08.696Z,70.74
2019-05-06T04:22:29.103Z,70.53
2019-05-06T04:26:53.378Z,70.50
2019-05-06T04:31:13.620Z,70.38
2019-05-06T04:35:34.824Z,70.52
2019-05-06T04:39:55.178Z,70.22
2019-05-06T04:44:17.185Z,69.61
2019-05-06T04:48:37.682Z,70.18
2019-05-06T04:52:58.966Z,69.88
2019-05-06T04:57:19.719Z,70.08
2019-05-06T05:01:40.190Z,69.68
2019-05-06T05:06:03.020Z,69.52
2019-05-06T05:10:23.670Z,69.52
2019-05-06T05:14:44.604Z,69.35
2019-05-06T05:19:04.968Z,69.04
2019-05-06T05:23:25.514Z,68.53
2019-05-06T05:27:46.617Z,68.03
2019-05-06T05:32:06.835Z,68.41
2019-05-06T05:36:27.626Z,68.15
2019-05-06T05:40:48.667Z,68.30
2019-05-06T05:45:09.041Z,68.30
2019-05-06T05:49:32.336Z,68.51
2019-05-06T05:53:53.109Z,68.46
2019-05-06T05:58:14.306Z,68.44
2019-05-06T06:02:35.059Z,68.27
2019-05-06T06:06:56.209Z,68.33
2019-05-06T06:11:17.094Z,68.33
2019-05-06T06:15:38.106Z,67.47
2019-05-06T06:19:59.192Z,67.94
2019-05-06T06:24:22.535Z,67.83
2019-05-06T06:28:42.927Z,67.17
2019-05-06T06:33:03.452Z,67.12
2019-05-06T06:37:25.448Z,67.33
2019-05-06T06:41:47.028Z,66.52
2019-05-06T06:46:09.400Z,65.21
2019-05-06T06:50:30.140Z,65.09
2019-05-06T06:54:52.737Z,64.82
2019-05-06T06:59:15.146Z,64.12
2019-05-06T07:03:37.069Z,62.93
2019-05-06T07:07:57.660Z,63.39
2019-05-06T07:12:18.515Z,63.32
2019-05-06T07:16:42.871Z,63.85
2019-05-06T07:21:05.403Z,63.59
2019-05-06T07:25:26.391Z,62.44
2019-05-06T07:29:48.066Z,62.07
2019-05-06T07:34:12.009Z,61.54
2019-05-06T07:38:33.340Z,61.13
2019-05-06T07:42:53.802Z,61.07
2019-05-06T07:47:15.912Z,60.77
2019-05-06T07:51:36.338Z,59.95
2019-05-06T07:55:57.601Z,59.93
2019-05-06T08:00:19.788Z,60.05
2019-05-06T08:04:42.093Z,59.89
2019-05-06T08:09:08.256Z,60.26
2019-05-06T08:13:28.899Z,60.26
2019-05-06T08:17:52.360Z,59.99
2019-05-06T08:22:13.632Z,59.66
2019-05-06T08:26:34.880Z,58.29
2019-05-06T08:30:55.951Z,59.63
2019-05-06T08:35:16.868Z,58.88
2019-05-06T08:39:38.160Z,59.45
2019-05-06T08:43:59.068Z,59.84
2019-05-06T08:48:19.545Z,58.85
2019-05-06T08:52:42.457Z,57.20
2019-05-06T08:57:02.728Z,57.97
2019-05-06T09:01:23.512Z,57.82
2019-05-06T09:05:44.190Z,56.61
2019-05-06T09:10:07.446Z,56.61
2019-05-06T09:14:28.332Z,55.12
2019-05-06T09:18:48.533Z,54.85
2019-05-06T09:23:12.284Z,54.35
2019-05-06T09:27:32.804Z,52.83
2019-05-06T09:31:53.594Z,52.37
2019-05-06T09:36:14.469Z,52.16
2019-05-06T09:40:35.547Z,47.30
2019-05-06T09:44:55.997Z,49.12
2019-05-06T09:49:16.608Z,49.12
2019-05-06T09:53:38.246Z,49.79
2019-05-06T09:57:59.829Z,48.39
2019-05-06T10:02:23.078Z,48.39
2019-05-06T10:06:55.782Z,45.57
2019-05-06T10:11:06.595Z,49.08
2019-05-06T10:15:27.282Z,52.31
2019-05-06T10:19:47.524Z,52.31
2019-05-06T10:24:08.320Z,53.13
2019-05-06T10:28:29.354Z,54.70
2019-05-06T10:32:50.164Z,54.59
2019-05-06T10:37:19.726Z,54.52
2019-05-06T10:41:44.409Z,54.08
2019-05-06T10:46:06.119Z,53.42
2019-05-06T10:50:26.593Z,51.41
2019-05-06T10:54:47.136Z,51.41
2019-05-06T10:59:08.211Z,53.10
2019-05-06T11:03:28.952Z,51.62
2019-05-06T11:07:52.165Z,51.62
2019-05-06T11:12:12.565Z,51.23
2019-05-06T11:16:34.141Z,50.53
2019-05-06T11:20:56.319Z,51.68
2019-05-06T11:25:17.198Z,49.36
2019-05-06T11:29:38.207Z,51.30
2019-05-06T11:33:59.446Z,50.50
2019-05-06T11:38:20.016Z,55.21
2019-05-06T11:42:40.198Z,55.21
2019-05-06T11:47:03.231Z,56.02
2019-05-06T11:51:23.356Z,57.58
2019-05-06T11:55:43.793Z,59.69
2019-05-06T12:00:05.063Z,60.36
2019-05-06T12:04:25.483Z,60.94
2019-05-06T12:08:46.318Z,60.40
2019-05-06T12:13:07.124Z,57.68
2019-05-06T12:17:28.644Z,55.03
2019-05-06T12:21:49.784Z,53.27
2019-05-06T12:26:13.061Z,52.62
2019-05-06T12:30:33.368Z,50.58
2019-05-06T12:34:53.668Z,50.72
2019-05-06T12:39:16.039Z,48.60
2019-05-06T12:43:36.344Z,49.17
2019-05-06T12:47:56.868Z,49.99
2019-05-06T12:52:17.423Z,45.01
2019-05-06T12:56:38.589Z,48.08
2019-05-06T13:00:58.645Z,46.51
2019-05-06T13:05:19.025Z,48.05
2019-05-06T13:09:42.491Z,47.56
2019-05-06T13:14:04.207Z,45.72
2019-05-06T13:18:25.278Z,47.03
2019-05-06T13:22:46.352Z,48.34
2019-05-06T13:27:08.339Z,47.61
2019-05-06T13:31:28.668Z,46.99
2019-05-06T13:35:49.876Z,46.37
2019-05-06T13:40:10.823Z,46.74
2019-05-06T13:44:32.249Z,48.03
2019-05-06T13:48:57.307Z,45.43
2019-05-06T13:53:16.379Z,47.02
2019-05-06T13:57:39.357Z,45.77
2019-05-06T14:02:07.201Z,46.75
2019-05-06T14:06:28.436Z,47.12
2019-05-06T14:10:59.023Z,45.77
2019-05-06T14:15:12.504Z,47.09
2019-05-06T14:19:34.287Z,48.34
2019-05-06T14:23:55.023Z,45.70
2019-05-06T14:28:16.286Z,46.10
2019-05-06T14:32:37.270Z,43.04
2019-05-06T14:36:58.643Z,44.32
2019-05-06T14:41:19.025Z,43.14
2019-05-06T14:45:42.224Z,42.07
2019-05-06T14:50:04.013Z,43.27
2019-05-06T14:54:25.267Z,44.11
2019-05-06T14:58:45.507Z,45.19
2019-05-06T15:03:06.540Z,44.01
2019-05-06T15:07:26.728Z,43.80
2019-05-06T15:11:48.283Z,44.84
2019-05-06T15:16:09.346Z,43.38
2019-05-06T15:20:30.486Z,45.03
2019-05-06T15:24:53.538Z,45.02
2019-05-06T15:29:18.211Z,45.66
2019-05-06T15:33:40.235Z,46.94
2019-05-06T15:38:02.256Z,46.60
2019-05-06T15:42:23.429Z,46.67
2019-05-06T15:46:45.397Z,47.91
2019-05-06T15:51:05.559Z,49.66
2019-05-06T15:55:28.431Z,50.34
2019-05-06T15:59:48.588Z,51.36
2019-05-06T16:04:08.971Z,53.09
2019-05-06T16:08:29.554Z,55.45
2019-05-06T16:12:52.974Z,55.13
2019-05-06T16:17:15.217Z,58.46
2019-05-06T16:21:35.941Z,61.81
2019-05-06T16:25:56.370Z,64.32
2019-05-06T16:30:17.813Z,65.56
2019-05-06T16:34:38.536Z,66.54
2019-05-06T16:38:59.496Z,67.46
2019-05-06T16:43:22.143Z,67.93
2019-05-06T16:47:44.814Z,67.87
2019-05-06T16:52:05.572Z,67.89
2019-05-06T16:56:27.213Z,69.80
2019-05-06T17:00:48.178Z,68.39
2019-05-06T17:05:08.941Z,68.42
2019-05-06T17:09:29.710Z,68.20
2019-05-06T17:13:51.874Z,69.15
2019-05-06T17:18:12.416Z,68.18
2019-05-06T17:22:33.132Z,67.77
2019-05-06T17:26:56.264Z,68.04
2019-05-06T17:31:16.291Z,67.57
2019-05-06T17:35:37.128Z,67.57
2019-05-06T17:40:08.035Z,68.34
2019-05-06T17:44:22.798Z,67.66
2019-05-06T17:48:43.607Z,68.16
2019-05-06T17:53:04.355Z,67.72
2019-05-06T17:57:25.269Z,68.46
2019-05-06T18:01:46.429Z,69.75
2019-05-06T18:06:13.674Z,69.81
2019-05-06T18:10:29.963Z,69.14
2019-05-06T18:14:53.189Z,69.74
2019-05-06T18:19:13.439Z,70.05
2019-05-06T18:23:34.467Z,70.28
2019-05-06T18:27:55.575Z,70.67
2019-05-06T18:32:16.139Z,71.34
2019-05-06T18:36:37.145Z,71.48
2019-05-06T18:40:58.129Z,71.48
2019-05-06T18:45:18.663Z,71.47
2019-05-06T18:49:38.849Z,71.47
2019-05-06T18:54:00.055Z,71.71
2019-05-06T18:58:22.349Z,71.85
2019-05-06T19:02:42.986Z,71.94
2019-05-06T19:07:10.700Z,72.03
2019-05-06T19:11:26.035Z,71.93
2019-05-06T19:15:46.821Z,71.91
2019-05-06T19:20:07.616Z,71.83
2019-05-06T19:24:27.917Z,72.01
2019-05-06T19:28:48.828Z,72.11
2019-05-06T19:33:12.385Z,72.03
2019-05-06T19:37:33.376Z,71.96
2019-05-06T19:41:54.006Z,72.08
2019-05-06T19:46:15.013Z,71.78
2019-05-06T19:50:36.884Z,71.74
2019-05-06T19:54:57.113Z,71.69
2019-05-06T19:59:17.515Z,71.61
2019-05-06T20:03:39.202Z,71.61
2019-05-06T20:07:59.630Z,71.96
2019-05-06T20:12:20.568Z,72.19
2019-05-06T20:16:41.993Z,72.05
2019-05-06T20:21:02.849Z,72.17
2019-05-06T20:25:23.485Z,71.99
2019-05-06T20:29:44.075Z,71.79
2019-05-06T20:34:05.934Z,71.10
2019-05-06T20:38:26.798Z,71.29
2019-05-06T20:42:47.697Z,71.53
2019-05-06T20:47:08.334Z,71.56
2019-05-06T20:51:29.084Z,71.36
2019-05-06T20:55:53.046Z,71.25
2019-05-06T21:00:14.239Z,71.19
2019-05-06T21:04:34.658Z,71.52
2019-05-06T21:08:55.170Z,71.69
2019-05-06T21:13:31.411Z,71.46
2019-05-06T21:17:46.054Z,71.51
2019-05-06T21:22:07.909Z,71.16
2019-05-06T21:26:28.661Z,71.59
2019-05-06T21:30:49.466Z,71.31
2019-05-06T21:35:12.555Z,71.37
2019-05-06T21:39:34.049Z,71.40
2019-05-06T21:43:54.306Z,71.26
2019-05-06T21:48:14.827Z,71.41
2019-05-06T21:52:39.571Z,70.97
2019-05-06T21:56:58.632Z,71.38
2019-05-06T22:01:22.042Z,71.46
2019-05-06T22:05:43.144Z,71.41
2019-05-06T22:10:04.266Z,71.50
2019-05-06T22:14:24.973Z,71.72
2019-05-06T22:18:45.678Z,71.61
2019-05-06T22:23:06.837Z,71.79
2019-05-06T22:27:28.140Z,71.97
2019-05-06T22:31:48.775Z,72.18
2019-05-06T22:36:10.077Z,72.01
2019-05-06T22:40:32.733Z,70.41
2019-05-06T22:44:53.681Z,71.00
2019-05-06T22:49:14.678Z,71.46
2019-05-06T22:53:35.164Z,71.67
2019-05-06T22:57:55.940Z,71.78
2019-05-06T23:02:16.607Z,71.94
2019-05-06T23:06:37.062Z,71.61
2019-05-06T23:10:58.163Z,71.75
2019-05-06T23:15:18.603Z,71.95
2019-05-06T23:19:39.827Z,71.95
2019-05-06T23:24:02.158Z,72.01
2019-05-06T23:28:22.762Z,72.05
2019-05-06T23:32:43.422Z,71.91
2019-05-06T23:37:22.986Z,72.12
2019-05-06T23:42:22.700Z,72.07
2019-05-06T23:47:19.425Z,71.82
2019-05-06T23:52:16.753Z,71.94
2019-05-06T23:56:39.305Z,72.09
